Time;durP1;ratioP1;P1;durP2;ratioP2;P2;SDS_P1;SDS_P2;PMS_P1;PMS_P2;Temp;Humidity;BMP_temperature;BMP_pressure;BME280_temperature;BME280_humidity;BME280_pressure;Samples;Min_cycle;Max_cycle;Signal;HPM_P1;HPM_P2
2021/04/18 00:01:44;;;;;;;8.52;5.97;;;3.30;99.90;;;;;;5082569;28;20111;-63
2021/04/18 00:04:09;;;;;;;9.05;5.10;;;3.30;99.90;;;;;;5061406;28;20059;-66
2021/04/18 00:06:37;;;;;;;9.88;5.88;;;3.30;99.90;;;;;;5089291;28;20028;-64
2021/04/18 00:09:07;;;;;;;6.20;5.50;;;3.20;99.90;;;;;;5090885;28;20036;-63
2021/04/18 00:11:32;;;;;;;11.10;6.50;;;3.20;99.90;;;;;;5078596;28;20029;-61
2021/04/18 00:13:58;;;;;;;9.40;5.53;;;3.20;99.90;;;;;;5084282;28;20032;-63
2021/04/18 00:16:25;;;;;;;7.65;6.32;;;3.20;99.90;;;;;;5087815;28;20465;-63
2021/04/18 00:18:50;;;;;;;9.45;6.60;;;3.20;99.90;;;;;;5084561;28;20032;-66
2021/04/18 00:21:16;;;;;;;8.60;6.30;;;3.20;99.90;;;;;;5082920;28;20032;-64
2021/04/18 00:23:42;;;;;;;10.25;6.88;;;3.20;99.90;;;;;;5074922;28;20449;-64
2021/04/18 00:26:08;;;;;;;7.43;6.00;;;3.20;99.90;;;;;;5090806;28;20033;-62
2021/04/18 00:28:33;;;;;;;7.90;5.97;;;3.20;99.90;;;;;;5089763;28;20081;-63
2021/04/18 00:30:59;;;;;;;6.65;5.75;;;3.30;99.90;;;;;;5090231;28;20646;-63
2021/04/18 00:33:25;;;;;;;6.68;5.22;;;3.40;99.90;;;;;;5074899;28;20483;-66
2021/04/18 00:35:51;;;;;;;7.68;5.05;;;3.40;99.90;;;;;;5066224;28;20112;-62
2021/04/18 00:38:18;;;;;;;8.35;5.75;;;3.40;99.90;;;;;;5083902;28;20038;-65
2021/04/18 00:40:43;;;;;;;8.50;5.65;;;3.30;99.90;;;;;;5089524;28;20047;-61
2021/04/18 00:43:10;;;;;;;6.90;5.78;;;3.30;99.90;;;;;;5078610;28;20028;-65
2021/04/18 00:45:35;;;;;;;9.85;6.35;;;3.20;99.90;;;;;;5073836;28;20139;-65
2021/04/18 00:48:02;;;;;;;9.35;6.82;;;3.20;99.90;;;;;;5056160;28;20056;-66
2021/04/18 00:50:30;;;;;;;9.38;6.40;;;3.20;99.90;;;;;;5081126;28;20532;-64
2021/04/18 00:52:56;;;;;;;9.25;6.70;;;3.10;99.90;;;;;;5073424;28;20109;-65
2021/04/18 00:55:27;;;;;;;9.50;6.88;;;3.10;99.90;;;;;;5069101;28;20043;-63
2021/04/18 00:57:54;;;;;;;10.00;6.93;;;3.00;99.90;;;;;;5077926;28;20082;-66
2021/04/18 01:00:21;;;;;;;10.65;7.57;;;3.00;99.90;;;;;;5059224;28;20039;-64
2021/04/18 01:02:47;;;;;;;11.70;8.20;;;3.00;99.90;;;;;;5077296;28;20369;-63
2021/04/18 01:05:13;;;;;;;10.30;7.72;;;3.00;99.90;;;;;;5078269;28;20119;-66
2021/04/18 01:07:39;;;;;;;9.55;7.68;;;3.00;99.90;;;;;;5093743;28;20509;-66
2021/04/18 01:10:07;;;;;;;9.15;7.25;;;3.00;99.90;;;;;;5082574;28;20104;-66
2021/04/18 01:12:33;;;;;;;11.65;7.13;;;3.10;99.90;;;;;;5085975;28;20020;-63
2021/04/18 01:14:58;;;;;;;10.30;7.10;;;3.00;99.90;;;;;;5085739;28;20168;-64
2021/04/18 01:17:25;;;;;;;7.32;6.55;;;3.10;99.90;;;;;;5091674;28;20024;-65
2021/04/18 01:19:51;;;;;;;11.18;7.18;;;3.20;99.90;;;;;;5093104;28;20070;-66
2021/04/18 01:22:16;;;;;;;10.63;7.63;;;3.20;99.90;;;;;;5078113;28;20036;-62
2021/04/18 01:24:42;;;;;;;9.18;7.30;;;3.20;99.90;;;;;;5065126;28;20393;-67
2021/04/18 01:27:10;;;;;;;8.68;7.13;;;3.20;99.90;;;;;;5084896;28;20094;-66
2021/04/18 01:29:36;;;;;;;9.05;7.20;;;3.30;99.90;;;;;;5075583;28;20016;-65
2021/04/18 01:32:02;;;;;;;8.48;7.43;;;3.30;99.90;;;;;;5078454;28;20048;-65
2021/04/18 01:34:28;;;;;;;10.93;7.28;;;3.30;99.90;;;;;;5089450;28;20039;-65
2021/04/18 01:36:54;;;;;;;9.95;6.80;;;3.20;99.90;;;;;;5077388;28;20028;-66
2021/04/18 01:39:20;;;;;;;9.38;7.00;;;3.20;99.90;;;;;;5070806;28;20028;-66
2021/04/18 01:41:45;;;;;;;8.80;7.90;;;3.10;99.90;;;;;;5081503;28;20037;-63
2021/04/18 01:44:15;;;;;;;10.73;7.97;;;3.20;99.90;;;;;;5084807;28;20366;-67
2021/04/18 01:46:41;;;;;;;9.77;7.23;;;3.20;99.90;;;;;;5084365;28;20032;-67
2021/04/18 01:49:07;;;;;;;8.95;7.57;;;3.20;99.90;;;;;;5068504;28;20163;-63
2021/04/18 01:51:33;;;;;;;9.73;8.05;;;3.20;99.90;;;;;;5083026;28;20043;-63
2021/04/18 01:54:00;;;;;;;9.88;8.20;;;3.20;99.90;;;;;;5085033;28;20587;-63
2021/04/18 01:56:25;;;;;;;10.80;8.10;;;3.20;99.90;;;;;;5079230;28;20460;-65
2021/04/18 01:58:51;;;;;;;11.05;8.02;;;3.10;99.90;;;;;;5092068;28;20059;-66
2021/04/18 02:01:17;;;;;;;9.65;8.35;;;3.20;99.90;;;;;;5079563;28;20067;-63
2021/04/18 02:03:42;;;;;;;11.82;8.18;;;3.20;99.90;;;;;;5084327;28;20080;-66
2021/04/18 02:06:08;;;;;;;8.63;7.47;;;3.30;99.90;;;;;;5092683;28;20032;-65
2021/04/18 02:08:34;;;;;;;9.70;8.18;;;3.30;99.90;;;;;;5088820;28;20038;-63
2021/04/18 02:10:59;;;;;;;10.85;7.97;;;3.30;99.90;;;;;;5065659;28;20063;-63
2021/04/18 02:13:25;;;;;;;10.80;7.75;;;3.30;99.90;;;;;;5079924;28;20078;-63
2021/04/18 02:15:51;;;;;;;9.27;8.23;;;3.30;99.90;;;;;;5091946;28;20534;-63
2021/04/18 02:18:16;;;;;;;11.48;8.20;;;3.30;99.90;;;;;;5090630;28;20028;-66
2021/04/18 02:20:42;;;;;;;10.73;8.82;;;3.20;99.90;;;;;;5068878;28;20064;-66
2021/04/18 02:23:08;;;;;;;10.35;8.48;;;3.30;99.90;;;;;;5073881;28;20032;-62
2021/04/18 02:25:33;;;;;;;10.50;8.73;;;3.30;99.90;;;;;;5092124;28;20031;-63
2021/04/18 02:27:59;;;;;;;10.52;8.88;;;3.30;99.90;;;;;;5075502;28;20040;-63
2021/04/18 02:30:25;;;;;;;15.13;10.45;;;3.20;99.90;;;;;;5079207;28;20028;-67
2021/04/18 02:32:51;;;;;;;11.90;9.10;;;3.30;99.90;;;;;;5091551;28;20028;-66
2021/04/18 02:35:17;;;;;;;11.32;9.60;;;3.20;99.90;;;;;;5092570;28;20024;-61
2021/04/18 02:37:45;;;;;;;11.70;9.35;;;3.30;99.90;;;;;;5090134;28;20491;-67
2021/04/18 02:40:11;;;;;;;10.05;8.93;;;3.30;99.90;;;;;;5079515;28;20089;-65
2021/04/18 02:42:38;;;;;;;10.77;8.55;;;3.30;99.90;;;;;;5091433;28;20040;-60
2021/04/18 02:45:07;;;;;;;12.18;8.95;;;3.30;99.90;;;;;;5081567;28;20043;-62
2021/04/18 02:47:32;;;;;;;11.70;8.55;;;3.30;99.90;;;;;;5081998;28;20527;-63
2021/04/18 02:49:58;;;;;;;11.32;8.32;;;3.30;99.90;;;;;;5074858;28;20028;-63
2021/04/18 02:52:24;;;;;;;13.40;8.65;;;3.30;99.90;;;;;;5075532;28;20161;-65
2021/04/18 02:54:49;;;;;;;10.23;9.05;;;3.30;99.90;;;;;;5081537;28;20048;-64
2021/04/18 02:57:15;;;;;;;11.20;8.50;;;3.30;99.90;;;;;;5064509;28;20512;-65
2021/04/18 02:59:41;;;;;;;10.77;9.57;;;3.30;99.90;;;;;;5062222;28;20082;-66
2021/04/18 03:02:06;;;;;;;11.40;9.30;;;3.30;99.90;;;;;;5060430;28;20035;-64
2021/04/18 03:04:32;;;;;;;12.48;9.50;;;3.30;99.90;;;;;;5063675;28;20466;-63
2021/04/18 03:06:58;;;;;;;10.55;9.00;;;3.30;99.90;;;;;;5058519;28;20091;-66
2021/04/18 03:09:23;;;;;;;14.13;10.27;;;3.30;99.90;;;;;;5062386;28;20078;-65
2021/04/18 03:11:49;;;;;;;11.00;9.60;;;3.30;99.90;;;;;;5053953;28;20793;-63
2021/04/18 03:14:14;;;;;;;10.40;9.00;;;3.20;99.90;;;;;;5062506;28;20028;-63
2021/04/18 03:16:40;;;;;;;14.80;10.65;;;3.20;99.90;;;;;;5062370;28;20024;-66
2021/04/18 03:19:06;;;;;;;13.05;10.95;;;3.20;99.90;;;;;;5060003;28;20021;-65
2021/04/18 03:21:32;;;;;;;16.85;11.13;;;3.20;99.90;;;;;;5061281;28;20107;-64
2021/04/18 03:23:57;;;;;;;12.82;9.73;;;3.20;99.90;;;;;;5061738;28;20107;-65
2021/04/18 03:26:23;;;;;;;12.25;10.10;;;3.20;99.90;;;;;;5086733;28;20032;-66
2021/04/18 03:28:49;;;;;;;13.23;10.00;;;3.20;99.90;;;;;;5090688;28;20051;-64
2021/04/18 03:31:14;;;;;;;13.65;10.95;;;3.20;99.90;;;;;;5084045;28;20072;-64
2021/04/18 03:33:41;;;;;;;15.43;10.68;;;3.20;99.90;;;;;;5074517;28;20032;-66
2021/04/18 03:36:09;;;;;;;13.27;10.07;;;3.20;99.90;;;;;;5091541;28;20529;-63
2021/04/18 03:38:35;;;;;;;13.20;9.85;;;3.20;99.90;;;;;;5089827;28;20024;-66
2021/04/18 03:41:00;;;;;;;12.93;9.57;;;3.20;99.90;;;;;;5085438;28;20434;-64
2021/04/18 03:43:26;;;;;;;13.55;10.02;;;3.20;99.90;;;;;;5074706;28;20029;-66
2021/04/18 03:45:51;;;;;;;13.32;10.00;;;3.20;99.90;;;;;;5059147;28;20036;-61
2021/04/18 03:48:17;;;;;;;14.65;10.45;;;3.20;99.90;;;;;;5077148;28;20050;-64
2021/04/18 03:50:43;;;;;;;12.63;10.48;;;3.20;99.90;;;;;;5088360;28;20032;-66
2021/04/18 03:53:08;;;;;;;16.20;10.32;;;3.20;99.90;;;;;;5078315;28;20035;-63
2021/04/18 03:55:34;;;;;;;13.48;10.57;;;3.20;99.90;;;;;;5083175;28;20428;-64
2021/04/18 03:57:59;;;;;;;13.40;10.10;;;3.20;99.90;;;;;;5070626;28;20079;-64
2021/04/18 04:00:25;;;;;;;10.23;8.75;;;3.20;99.90;;;;;;5088827;28;20028;-64
2021/04/18 04:02:51;;;;;;;13.00;10.50;;;3.20;99.90;;;;;;5075206;28;20032;-63
2021/04/18 04:05:17;;;;;;;16.08;11.40;;;3.30;99.90;;;;;;5091486;28;20085;-62
2021/04/18 04:07:42;;;;;;;13.80;10.48;;;3.20;99.90;;;;;;5073934;28;20031;-67
2021/04/18 04:10:09;;;;;;;12.93;10.10;;;3.30;99.90;;;;;;5086467;28;20107;-64
2021/04/18 04:12:34;;;;;;;15.80;11.98;;;3.30;99.90;;;;;;5068167;28;20054;-64
2021/04/18 04:15:00;;;;;;;16.02;11.73;;;3.30;99.90;;;;;;5072217;28;20504;-66
2021/04/18 04:17:26;;;;;;;15.27;12.02;;;3.30;99.90;;;;;;5091464;28;20389;-62
2021/04/18 04:19:52;;;;;;;15.05;11.60;;;3.30;99.90;;;;;;5094356;28;20031;-61
2021/04/18 04:22:18;;;;;;;15.65;12.77;;;3.30;99.90;;;;;;5079512;28;20028;-64
2021/04/18 04:24:44;;;;;;;16.85;12.80;;;3.30;99.90;;;;;;5077321;28;20057;-66
2021/04/18 04:27:10;;;;;;;14.32;12.18;;;3.30;99.90;;;;;;5082226;28;20032;-63
2021/04/18 04:29:35;;;;;;;15.80;12.65;;;3.30;99.90;;;;;;5095151;28;20073;-62
2021/04/18 04:32:01;;;;;;;13.50;11.18;;;3.30;99.90;;;;;;5080064;28;20029;-66
2021/04/18 04:34:26;;;;;;;13.15;10.75;;;3.30;99.90;;;;;;5074116;28;20125;-62
2021/04/18 04:36:52;;;;;;;14.52;11.25;;;3.30;99.90;;;;;;5078908;28;20119;-67
2021/04/18 04:39:18;;;;;;;17.05;13.38;;;3.30;99.90;;;;;;5095005;28;20057;-63
2021/04/18 04:41:43;;;;;;;16.35;13.40;;;3.40;99.90;;;;;;5077113;28;20036;-66
2021/04/18 04:44:16;;;;;;;15.30;12.65;;;3.30;99.90;;;;;;5064045;28;20078;-63
2021/04/18 04:46:43;;;;;;;15.00;12.15;;;3.40;99.90;;;;;;5070244;28;20426;-67
2021/04/18 04:49:08;;;;;;;14.10;11.23;;;3.40;99.90;;;;;;5093360;28;20025;-64
2021/04/18 04:51:34;;;;;;;13.52;11.48;;;3.40;99.90;;;;;;5087368;28;20029;-63
2021/04/18 04:53:59;;;;;;;14.73;11.80;;;3.40;99.90;;;;;;5068061;28;20640;-64
2021/04/18 04:56:25;;;;;;;14.82;12.32;;;3.40;99.90;;;;;;5081138;28;20152;-64
2021/04/18 04:58:50;;;;;;;14.45;11.98;;;3.40;99.90;;;;;;5080796;28;20040;-64
2021/04/18 05:01:16;;;;;;;16.75;13.13;;;3.40;99.90;;;;;;5085856;28;20056;-67
2021/04/18 05:03:42;;;;;;;17.23;12.45;;;3.40;99.90;;;;;;5069537;28;20060;-67
2021/04/18 05:06:08;;;;;;;15.93;12.60;;;3.50;99.90;;;;;;5089436;28;20079;-62
2021/04/18 05:08:34;;;;;;;16.45;12.80;;;3.50;99.90;;;;;;5093879;28;20442;-62
2021/04/18 05:10:59;;;;;;;14.68;10.93;;;3.50;99.90;;;;;;5080895;28;20028;-63
2021/04/18 05:13:25;;;;;;;13.52;10.20;;;3.60;99.90;;;;;;5075127;28;20033;-64
2021/04/18 05:15:50;;;;;;;13.95;11.05;;;3.60;99.90;;;;;;5085099;28;20106;-64
2021/04/18 05:18:16;;;;;;;13.27;10.88;;;3.60;99.90;;;;;;5090651;28;20020;-67
2021/04/18 05:20:42;;;;;;;15.45;11.30;;;3.60;99.90;;;;;;5093436;28;20024;-65
2021/04/18 05:23:07;;;;;;;13.57;10.02;;;3.60;99.90;;;;;;5077804;28;20470;-64
2021/04/18 05:25:33;;;;;;;14.65;10.80;;;3.70;99.90;;;;;;5084451;28;20101;-63
2021/04/18 05:27:59;;;;;;;12.77;9.98;;;3.70;99.90;;;;;;5064705;28;20630;-66
2021/04/18 05:30:25;;;;;;;13.88;10.43;;;3.70;99.90;;;;;;5067737;28;20017;-66
2021/04/18 05:32:50;;;;;;;14.05;10.00;;;3.80;99.90;;;;;;5065065;28;20028;-65
2021/04/18 05:35:16;;;;;;;13.20;10.85;;;3.70;99.90;;;;;;5065129;28;20017;-67
2021/04/18 05:37:42;;;;;;;12.20;10.20;;;3.80;99.90;;;;;;5064775;28;20033;-68
2021/04/18 05:40:08;;;;;;;13.10;10.27;;;3.80;99.90;;;;;;5065043;28;20024;-64
2021/04/18 05:42:33;;;;;;;13.05;10.82;;;3.80;99.90;;;;;;5067425;28;20486;-65
2021/04/18 05:44:59;;;;;;;12.82;10.30;;;3.80;99.90;;;;;;5065510;28;20029;-68
2021/04/18 05:47:25;;;;;;;15.32;11.38;;;3.90;99.90;;;;;;5065447;28;20021;-64
2021/04/18 05:49:51;;;;;;;12.70;11.35;;;3.90;99.90;;;;;;5063859;28;20031;-67
2021/04/18 05:52:16;;;;;;;13.65;10.98;;;4.00;99.90;;;;;;5062838;28;20159;-66
2021/04/18 05:54:42;;;;;;;12.93;10.45;;;4.00;99.90;;;;;;5068637;28;20031;-67
2021/04/18 05:57:08;;;;;;;14.50;9.88;;;4.00;99.90;;;;;;5063874;28;20047;-65
2021/04/18 05:59:33;;;;;;;11.02;9.27;;;4.10;99.90;;;;;;5066233;28;20405;-66
2021/04/18 06:01:59;;;;;;;12.10;9.55;;;4.10;99.90;;;;;;5064098;28;20489;-66
2021/04/18 06:04:25;;;;;;;10.18;8.60;;;4.20;99.90;;;;;;5065579;28;20104;-66
2021/04/18 06:06:51;;;;;;;10.60;8.77;;;4.20;99.90;;;;;;5067191;28;20117;-64
2021/04/18 06:09:16;;;;;;;10.43;9.05;;;4.30;99.90;;;;;;5063346;28;20083;-61
2021/04/18 06:11:42;;;;;;;11.57;9.18;;;4.30;99.90;;;;;;5062497;28;20029;-66
2021/04/18 06:14:08;;;;;;;11.95;9.40;;;4.40;99.90;;;;;;5065211;28;20083;-63
2021/04/18 06:16:33;;;;;;;12.52;9.52;;;4.50;99.90;;;;;;5068233;28;20028;-67
2021/04/18 06:18:59;;;;;;;11.65;9.70;;;4.50;99.90;;;;;;5061017;28;20082;-63
2021/04/18 06:21:25;;;;;;;13.60;10.10;;;4.60;99.90;;;;;;5064104;28;20485;-63
2021/04/18 06:23:50;;;;;;;16.60;10.52;;;4.70;99.90;;;;;;5063369;28;20115;-62
2021/04/18 06:26:16;;;;;;;14.25;10.13;;;4.80;99.90;;;;;;5062068;28;20409;-64
2021/04/18 06:28:42;;;;;;;12.90;9.55;;;4.90;99.90;;;;;;5061449;28;20031;-67
2021/04/18 06:31:08;;;;;;;12.10;8.85;;;4.90;99.90;;;;;;5063998;28;20036;-64
2021/04/18 06:33:33;;;;;;;11.55;8.18;;;5.00;99.90;;;;;;5066080;28;20098;-62
2021/04/18 06:35:59;;;;;;;12.52;9.48;;;5.00;99.90;;;;;;5062685;28;20116;-65
2021/04/18 06:38:25;;;;;;;10.75;8.68;;;5.10;99.90;;;;;;5065800;28;20119;-66
2021/04/18 06:40:52;;;;;;;12.90;8.95;;;5.30;99.90;;;;;;5060959;28;20021;-66
2021/04/18 06:43:21;;;;;;;11.23;8.90;;;5.40;99.90;;;;;;5064668;28;20041;-63
2021/04/18 06:45:50;;;;;;;12.13;9.20;;;5.60;99.90;;;;;;5062977;28;20021;-65
2021/04/18 06:48:17;;;;;;;12.53;9.00;;;5.70;99.90;;;;;;5064735;28;20040;-63
2021/04/18 06:50:43;;;;;;;10.25;8.60;;;5.70;99.90;;;;;;5058441;28;20116;-65
2021/04/18 06:53:09;;;;;;;15.80;10.10;;;5.70;97.90;;;;;;5051989;28;20510;-63
2021/04/18 06:55:35;;;;;;;12.65;9.30;;;5.70;95.90;;;;;;5056224;28;20036;-63
2021/04/18 06:58:01;;;;;;;11.25;9.48;;;5.70;96.40;;;;;;5052041;28;20041;-64
2021/04/18 07:00:26;;;;;;;12.88;8.75;;;5.80;97.60;;;;;;5056242;28;20427;-64
2021/04/18 07:02:52;;;;;;;10.52;8.77;;;5.90;98.20;;;;;;5061906;28;20029;-64
2021/04/18 07:05:19;;;;;;;12.20;8.93;;;6.00;96.90;;;;;;5060825;28;20021;-63
2021/04/18 07:07:46;;;;;;;12.63;9.25;;;6.10;96.20;;;;;;5054587;28;20108;-65
2021/04/18 07:10:30;;;;;;;9.80;8.32;;;6.20;96.10;;;;;;5057513;28;20039;-64
2021/04/18 07:13:08;;;;;;;11.73;9.15;;;6.30;96.80;;;;;;5058981;28;20405;-65
2021/04/18 07:15:36;;;;;;;11.90;9.18;;;6.40;93.80;;;;;;5058842;28;20021;-62
2021/04/18 07:18:01;;;;;;;11.27;9.18;;;6.40;93.80;;;;;;5052737;28;20511;-63
2021/04/18 07:20:27;;;;;;;11.13;9.65;;;6.50;93.40;;;;;;5052203;28;20036;-64
2021/04/18 07:22:53;;;;;;;11.77;9.35;;;6.60;93.20;;;;;;5060940;28;20481;-62
2021/04/18 07:25:30;;;;;;;10.63;8.82;;;6.70;93.10;;;;;;5056664;28;20074;-64
2021/04/18 07:27:56;;;;;;;13.27;9.50;;;6.90;91.30;;;;;;5067037;28;20029;-62
2021/04/18 07:30:24;;;;;;;11.85;8.63;;;7.00;91.20;;;;;;5067682;28;20025;-63
2021/04/18 07:33:07;;;;;;;12.05;8.75;;;7.10;92.60;;;;;;5055608;28;20037;-63
2021/04/18 07:35:41;;;;;;;11.68;8.65;;;7.20;90.40;;;;;;5065075;28;20028;-66
2021/04/18 07:38:33;;;;;;;11.05;8.40;;;7.30;90.70;;;;;;5052536;28;20044;-64
2021/04/18 07:41:20;;;;;;;9.93;8.25;;;7.30;88.90;;;;;;5058027;28;20451;-65
2021/04/18 07:43:47;;;;;;;14.27;8.77;;;7.30;87.00;;;;;;5053428;28;20158;-65
2021/04/18 07:46:15;;;;;;;10.32;8.40;;;7.20;86.80;;;;;;5064538;28;20029;-64
2021/04/18 07:48:42;;;;;;;15.27;9.10;;;7.10;87.30;;;;;;5055774;28;20025;-67
2021/04/18 07:51:08;;;;;;;12.85;8.93;;;7.10;86.70;;;;;;5051364;28;20031;-65
2021/04/18 07:53:35;;;;;;;13.40;8.95;;;7.00;87.20;;;;;;5065627;28;20420;-65
2021/04/18 07:56:00;;;;;;;11.50;8.45;;;7.00;89.90;;;;;;5065818;28;20034;-63
2021/04/18 07:58:26;;;;;;;12.15;9.52;;;7.00;90.40;;;;;;5069559;28;20112;-62
2021/04/18 08:00:52;;;;;;;10.90;8.23;;;7.00;90.40;;;;;;5074387;28;20047;-64
2021/04/18 08:03:18;;;;;;;11.40;6.60;;;7.10;86.00;;;;;;5075502;28;20039;-65
2021/04/18 08:05:45;;;;;;;9.70;6.80;;;7.10;84.60;;;;;;5074873;28;20028;-66
2021/04/18 08:08:15;;;;;;;16.67;7.53;;;7.10;83.80;;;;;;5075184;28;20040;-65
2021/04/18 08:10:53;;;;;;;13.43;8.20;;;7.20;86.30;;;;;;5074294;28;20040;-65
2021/04/18 08:13:21;;;;;;;11.10;6.60;;;7.30;87.80;;;;;;5076457;28;20108;-63
2021/04/18 08:15:57;;;;;;;9.95;6.53;;;7.40;85.60;;;;;;5068146;28;20024;-65
2021/04/18 08:18:46;;;;;;;14.10;6.68;;;7.50;83.10;;;;;;5083989;28;20024;-64
2021/04/18 08:21:33;;;;;;;9.43;5.75;;;7.70;82.20;;;;;;5062962;28;20028;-64
2021/04/18 08:24:00;;;;;;;12.63;6.78;;;7.80;80.50;;;;;;5068480;28;20100;-64
2021/04/18 08:26:28;;;;;;;10.57;6.53;;;7.90;78.70;;;;;;5073836;28;20086;-64
2021/04/18 08:29:03;;;;;;;9.32;6.13;;;7.90;78.80;;;;;;5066201;28;20050;-63
2021/04/18 08:31:32;;;;;;;8.77;6.60;;;8.00;77.00;;;;;;5070690;28;20385;-71
2021/04/18 08:34:05;;;;;;;11.15;6.38;;;8.00;77.10;;;;;;5070064;28;20034;-64
2021/04/18 08:36:33;;;;;;;8.30;5.85;;;8.10;77.90;;;;;;5054559;28;20480;-64
2021/04/18 08:38:59;;;;;;;10.15;5.95;;;8.10;78.20;;;;;;5075121;28;20035;-64
2021/04/18 08:41:41;;;;;;;10.05;6.28;;;8.10;76.90;;;;;;5076408;28;20381;-75
2021/04/18 08:44:20;;;;;;;10.85;5.65;;;8.20;76.80;;;;;;5073770;28;20040;-74
2021/04/18 08:46:49;;;;;;;8.75;5.75;;;8.20;76.40;;;;;;5065221;28;20036;-74
2021/04/18 08:49:33;;;;;;;9.60;5.75;;;8.20;76.00;;;;;;5067339;28;20040;-73
2021/04/18 08:52:05;;;;;;;8.05;5.20;;;8.20;75.70;;;;;;5085225;28;20101;-68
2021/04/18 08:54:33;;;;;;;8.35;4.90;;;8.20;74.90;;;;;;5095388;28;20065;-70
2021/04/18 08:57:01;;;;;;;10.30;5.20;;;8.20;74.50;;;;;;5093690;28;20036;-71
2021/04/18 08:59:27;;;;;;;8.13;5.95;;;8.30;72.50;;;;;;5070862;28;20036;-69
2021/04/18 09:02:03;;;;;;;11.75;5.53;;;8.40;72.10;;;;;;5092386;28;20392;-73
2021/04/18 09:04:34;;;;;;;9.00;6.18;;;8.40;73.00;;;;;;5094006;28;20126;-68
2021/04/18 09:07:01;;;;;;;9.90;5.88;;;8.60;72.20;;;;;;5079310;28;20043;-68
2021/04/18 09:09:27;;;;;;;10.45;6.35;;;8.60;72.30;;;;;;5081915;28;20422;-69
2021/04/18 09:11:53;;;;;;;7.90;5.93;;;8.60;72.70;;;;;;5084474;28;20394;-66
2021/04/18 09:14:32;;;;;;;8.85;5.95;;;8.80;73.00;;;;;;5066082;28;20025;-65
2021/04/18 09:17:19;;;;;;;8.43;5.10;;;9.00;72.70;;;;;;5074397;28;20020;-63
2021/04/18 09:19:48;;;;;;;9.95;5.68;;;9.20;72.70;;;;;;5093136;28;20432;-69
2021/04/18 09:22:23;;;;;;;6.57;5.63;;;9.60;82.00;;;;;;5067841;28;20067;-64
2021/04/18 09:24:51;;;;;;;10.60;6.25;;;9.70;79.40;;;;;;5057692;28;20040;-65
2021/04/18 09:27:17;;;;;;;11.50;5.93;;;9.70;78.10;;;;;;5066768;28;20090;-66
2021/04/18 09:29:49;;;;;;;10.98;6.63;;;9.60;78.30;;;;;;5062650;28;20036;-68
2021/04/18 09:32:18;;;;;;;12.20;6.55;;;9.60;77.70;;;;;;5061155;28;20040;-62
2021/04/18 09:34:45;;;;;;;10.55;6.20;;;9.70;78.00;;;;;;5062115;28;20029;-67
2021/04/18 09:37:14;;;;;;;11.00;6.72;;;9.60;78.70;;;;;;5061443;28;20029;-62
2021/04/18 09:39:42;;;;;;;12.65;6.57;;;9.70;78.90;;;;;;5061491;28;20029;-64
2021/04/18 09:42:10;;;;;;;11.32;7.22;;;9.70;79.20;;;;;;5059454;28;20036;-64
2021/04/18 09:44:46;;;;;;;12.50;7.25;;;9.80;79.00;;;;;;5060254;28;20428;-62
2021/04/18 09:47:28;;;;;;;12.13;6.95;;;9.90;78.40;;;;;;5059968;28;20025;-64
2021/04/18 09:49:56;;;;;;;9.32;6.38;;;10.00;78.40;;;;;;5059097;28;20068;-65
2021/04/18 09:52:32;;;;;;;12.93;7.05;;;10.00;78.20;;;;;;5062574;28;20028;-63
2021/04/18 09:55:11;;;;;;;9.85;6.07;;;10.10;78.80;;;;;;5061202;28;20108;-64
2021/04/18 09:57:50;;;;;;;8.52;6.60;;;10.20;78.70;;;;;;5062260;28;20397;-66
2021/04/18 10:00:19;;;;;;;8.98;6.30;;;10.40;78.80;;;;;;5059928;28;20025;-61
2021/04/18 10:03:02;;;;;;;11.05;5.90;;;10.40;79.30;;;;;;5063201;28;20032;-66
2021/04/18 10:05:30;;;;;;;11.85;6.65;;;10.60;72.70;;;;;;5056871;28;20055;-66
2021/04/18 10:08:14;;;;;;;10.95;6.43;;;10.90;68.70;;;;;;5063873;28;20040;-62
2021/04/18 10:10:41;;;;;;;13.50;6.38;;;11.00;69.00;;;;;;5061284;28;20035;-68
2021/04/18 10:13:07;;;;;;;10.07;6.40;;;11.00;68.10;;;;;;5061021;28;20497;-69
2021/04/18 10:15:33;;;;;;;9.32;6.68;;;11.00;68.90;;;;;;5039636;28;20037;-68
2021/04/18 10:18:11;;;;;;;10.40;7.30;;;11.00;69.20;;;;;;5057144;28;20035;-65
2021/04/18 10:20:37;;;;;;;9.05;6.88;;;11.10;68.80;;;;;;5058677;28;20029;-68
2021/04/18 10:23:08;;;;;;;9.95;6.65;;;11.20;68.20;;;;;;5061631;28;20211;-68
2021/04/18 10:25:34;;;;;;;;;;;11.30;69.20;;;;;;5059832;28;20029;-64
2021/04/18 10:28:00;;;;;;;9.20;7.43;;;11.20;69.80;;;;;;5061937;28;19931;-68
2021/04/18 10:30:26;;;;;;;8.75;6.88;;;11.30;69.30;;;;;;5055584;28;20025;-62
2021/04/18 10:32:52;;;;;;;14.73;8.10;;;11.40;62.50;;;;;;5057165;28;20415;-69
2021/04/18 10:35:19;;;;;;;14.18;8.05;;;11.60;60.50;;;;;;5062519;28;20177;-67
2021/04/18 10:37:45;;;;;;;10.95;7.18;;;11.60;62.40;;;;;;5055777;28;20028;-69
2021/04/18 10:40:13;;;;;;;12.25;7.45;;;11.60;61.50;;;;;;5056928;28;20025;-68
2021/04/18 10:42:39;;;;;;;10.52;6.45;;;11.70;60.60;;;;;;5058971;28;20119;-65
2021/04/18 10:45:06;;;;;;;11.43;8.07;;;11.70;61.20;;;;;;5059348;28;20349;-66
2021/04/18 10:47:32;;;;;;;12.30;7.85;;;11.70;60.80;;;;;;5062061;28;20478;-65
2021/04/18 10:49:59;;;;;;;11.45;7.90;;;11.70;61.20;;;;;;5061306;28;20031;-67
2021/04/18 10:52:25;;;;;;;12.38;7.30;;;11.90;60.40;;;;;;5062120;28;20055;-68
2021/04/18 10:54:52;;;;;;;9.45;6.85;;;12.00;60.10;;;;;;5059389;28;20482;-67
2021/04/18 10:57:17;;;;;;;9.85;7.22;;;12.10;59.50;;;;;;5064255;28;20045;-62
2021/04/18 10:59:43;;;;;;;9.90;7.07;;;12.20;62.00;;;;;;5061695;28;20032;-69
2021/04/18 11:02:09;;;;;;;10.88;7.97;;;12.30;60.10;;;;;;5063289;28;20047;-68
2021/04/18 11:04:38;;;;;;;13.57;8.20;;;12.20;58.50;;;;;;5059805;28;20049;-66
2021/04/18 11:07:04;;;;;;;10.10;7.55;;;12.00;59.30;;;;;;5063732;28;20045;-67
2021/04/18 11:09:30;;;;;;;11.15;7.28;;;12.00;59.70;;;;;;5060466;28;20031;-69
2021/04/18 11:11:56;;;;;;;9.70;7.18;;;12.00;59.10;;;;;;5063327;28;20394;-65
2021/04/18 11:14:22;;;;;;;11.32;6.63;;;12.00;59.30;;;;;;5065343;28;20033;-64
2021/04/18 11:16:48;;;;;;;10.15;7.25;;;12.00;60.10;;;;;;5059627;28;20033;-68
2021/04/18 11:19:16;;;;;;;11.77;7.57;;;12.10;59.80;;;;;;5064766;28;20036;-67
2021/04/18 11:21:42;;;;;;;8.95;6.88;;;12.20;59.00;;;;;;5065132;28;20028;-70
2021/04/18 11:24:07;;;;;;;9.52;7.70;;;12.20;59.20;;;;;;5061719;28;20082;-69
2021/04/18 11:26:33;;;;;;;9.45;7.32;;;12.20;58.80;;;;;;5063799;28;20028;-70
2021/04/18 11:28:59;;;;;;;11.65;7.45;;;12.20;58.80;;;;;;5061786;28;20485;-69
2021/04/18 11:31:25;;;;;;;11.70;7.88;;;12.20;59.70;;;;;;5064374;28;20481;-66
2021/04/18 11:33:51;;;;;;;11.55;7.22;;;12.20;59.20;;;;;;5067065;28;20024;-65
2021/04/18 11:36:18;;;;;;;7.85;5.60;;;12.20;59.20;;;;;;5060293;28;20024;-70
2021/04/18 11:38:44;;;;;;;7.72;6.60;;;12.30;59.60;;;;;;5061430;28;20032;-70
2021/04/18 11:41:10;;;;;;;12.85;6.93;;;12.40;57.50;;;;;;5070360;28;20069;-68
2021/04/18 11:43:36;;;;;;;9.07;6.68;;;12.40;57.90;;;;;;5071797;28;20036;-70
2021/04/18 11:46:03;;;;;;;12.27;7.63;;;12.40;59.00;;;;;;5071485;28;20329;-68
2021/04/18 11:48:28;;;;;;;7.13;5.22;;;12.60;58.30;;;;;;5068572;28;20038;-69
2021/04/18 11:50:54;;;;;;;10.88;6.75;;;12.80;65.30;;;;;;5063823;28;20036;-70
2021/04/18 11:53:20;;;;;;;7.05;6.13;;;12.80;63.40;;;;;;5058868;28;20060;-69
2021/04/18 11:55:45;;;;;;;8.07;6.47;;;12.60;62.80;;;;;;5074381;28;20468;-69
2021/04/18 11:58:12;;;;;;;8.95;6.60;;;12.50;62.20;;;;;;5059575;28;20097;-68
2021/04/18 12:00:38;;;;;;;10.02;6.85;;;12.30;62.20;;;;;;5090811;28;20036;-71
2021/04/18 12:03:05;;;;;;;7.05;5.90;;;12.20;62.40;;;;;;5073361;28;20058;-70
2021/04/18 12:05:31;;;;;;;10.07;6.93;;;12.00;63.10;;;;;;5088112;28;20090;-68
2021/04/18 12:07:57;;;;;;;9.40;6.85;;;11.90;63.00;;;;;;5061881;28;20087;-66
2021/04/18 12:10:24;;;;;;;8.98;6.10;;;11.80;62.30;;;;;;5077361;28;20419;-65
2021/04/18 12:12:50;;;;;;;12.15;7.55;;;11.80;62.90;;;;;;5079377;28;20028;-68
2021/04/18 12:15:16;;;;;;;11.50;6.82;;;11.80;62.90;;;;;;5075833;28;20466;-66
2021/04/18 12:17:42;;;;;;;14.75;7.20;;;11.80;62.20;;;;;;5064365;28;20121;-66
2021/04/18 12:20:10;;;;;;;10.45;6.68;;;11.90;62.60;;;;;;5085210;28;20817;-68
2021/04/18 12:22:38;;;;;;;9.27;6.00;;;12.10;61.60;;;;;;5051806;28;20036;-63
2021/04/18 12:25:06;;;;;;;8.52;6.13;;;12.30;61.90;;;;;;5062893;28;20033;-67
2021/04/18 12:27:31;;;;;;;8.15;6.55;;;12.40;61.80;;;;;;5080979;28;20150;-66
2021/04/18 12:29:57;;;;;;;8.85;6.60;;;12.50;61.10;;;;;;5089238;28;20111;-67
2021/04/18 12:32:23;;;;;;;10.55;6.05;;;12.70;60.50;;;;;;5066077;28;20031;-65
2021/04/18 12:34:50;;;;;;;11.13;6.18;;;12.80;60.30;;;;;;5086850;28;20012;-67
2021/04/18 12:37:16;;;;;;;7.65;5.95;;;12.80;60.50;;;;;;5068390;28;20040;-64
2021/04/18 12:39:42;;;;;;;13.05;7.28;;;12.80;60.10;;;;;;5055537;28;20033;-63
2021/04/18 12:42:08;;;;;;;7.35;5.78;;;12.70;59.20;;;;;;5093420;28;20055;-62
2021/04/18 12:44:34;;;;;;;11.82;6.80;;;12.70;59.90;;;;;;5082624;28;20039;-62
2021/04/18 12:47:00;;;;;;;11.50;5.85;;;12.90;59.60;;;;;;5064971;28;20033;-62